This is the latest recevied weather packets stored in our database for station/object IU2RPR-3. If no packets are shown the sender has not sent any weather packets the latest 10 day(s).
| Time | Temp. | Humidity | Pressure | Rain* | Wind** | Luminosity | Snow |
|---|---|---|---|---|---|---|---|
| 1777776608 | 13.89° C | 55% | 1022 hPa | - | - | - | - |
| 1777774807 | 14.44° C | 53% | 1022.2 hPa | - | - | - | - |
| 1777773006 | 14.44° C | 53% | 1022.4 hPa | - | - | - | - |
| 1777771204 | 14.44° C | 53% | 1022.4 hPa | - | - | - | - |
| 1777769403 | 15° C | 51% | 1022.5 hPa | - | - | - | - |
| 1777767602 | 15° C | 51% | 1023 hPa | - | - | - | - |
| 1777765801 | 15.56° C | 51% | 1023.2 hPa | - | - | - | - |
| 1777764000 | 15.56° C | 48% | 1023.3 hPa | - | - | - | - |
| 1777762198 | 16.11° C | 46% | 1023.4 hPa | - | - | - | - |
| 1777760397 | 16.11° C | 48% | 1023.5 hPa | - | - | - | - |
| 1777758596 | 16.67° C | 47% | 1023.6 hPa | - | - | - | - |
| 1777756795 | 16.67° C | 47% | 1023.4 hPa | - | - | - | - |
| 1777754993 | 17.78° C | 44% | 1023.4 hPa | - | - | - | - |
| 1777753192 | 18.33° C | 43% | 1023.4 hPa | - | - | - | - |
| 1777751391 | 19.44° C | 41% | 1023.3 hPa | - | - | - | - |
| 1777749589 | 20.56° C | 36% | 1023 hPa | - | - | - | - |
| 1777747924 | 22.22° C | 32% | 1022.7 hPa | - | - | - | - |
| 1777746123 | 23.89° C | 31% | 1022.3 hPa | - | - | - | - |
| 1777744322 | 25.56° C | 28% | 1022.2 hPa | - | - | - | - |
| 1777742521 | 25° C | 29% | 1022.3 hPa | - | - | - | - |
| 1777740719 | 27.22° C | 26% | 1022.1 hPa | - | - | - | - |
| 1777738918 | 26.67° C | 28% | 1022.5 hPa | - | - | - | - |
| 1777737117 | 28.89° C | 25% | 1022.6 hPa | - | - | - | - |
| 1777735315 | 28.33° C | 25% | 1022.8 hPa | - | - | - | - |
| 1777733514 | 27.22° C | 26% | 1023.1 hPa | - | - | - | - |
* Rain since midnight (hover to see other rain measurements)
** Current wind speed in m/s (hover to see current wind gust speed)